Fort Pike — WAA9418 — position and weather

sailwx.info

Track history (hours):
 
Tides and Currents Weather Stations Pressure Air Temp Water Temp Dewpoint Dewpoint Depression Visibility Wind Speed Wind Dir Waves Ship Positions

Fort Pike

Owner: Salisbury Towing Corporation, Chesapeak, VA. More information available from US FCC via Universal Licensing System and Coast Guard Vessel Documentation Center.

Last reported at 2017-Feb-28 12:33 UTC. Time now 2017-Feb-28 12:48 UTC.
Position N 36°50' W 076°16'.

Length 18 m; draft 2.5 m.

Type: Tug. MMSI: 366948310.

Date/timePositionNaut miles runAvg speedWind from/ knotsBaromVisibWave heightAir tempDewpointWater temp
2017-Feb-28 12:33N 36°50' W 076°16'0 0.0
2017-Feb-28 11:33N 36°50' W 076°16'0 0.0
2017-Feb-28 10:21N 36°50' W 076°16'0 0.1
2017-Feb-28 06:33N 36°50' W 076°16'1 1.1
2017-Feb-28 05:33N 36°50' W 076°17'0 0.0
2017-Feb-28 04:33N 36°50' W 076°17'0 0.0
2017-Feb-28 03:33N 36°50' W 076°17'0 0.0
2017-Feb-28 02:33N 36°50' W 076°17'1 0.9
2017-Feb-28 01:33N 36°50' W 076°16'1 1.2
2017-Feb-28 00:33N 36°50' W 076°18'1 1.0
2017-Feb-27 23:33N 36°50' W 076°17'2 1.7
2017-Feb-27 22:33N 36°49' W 076°17'2 2.2
2017-Feb-27 21:33N 36°51' W 076°18'2 0.6
2017-Feb-27 17:33N 36°53' W 076°20'5 2.4
2017-Feb-27 15:32N 36°50' W 076°15'0 0.0
2017-Feb-27 14:32N 36°50' W 076°15'1 1.0
2017-Feb-27 13:33N 36°50' W 076°16'1 1.2
2017-Feb-27 12:32N 36°50' W 076°17'0 0.0
2017-Feb-27 11:32N 36°50' W 076°17'0 0.0
2017-Feb-27 10:32N 36°50' W 076°17'0 0.0
2017-Feb-27 09:32N 36°50' W 076°17'0 0.0
2017-Feb-27 08:32N 36°50' W 076°17'0 0.0
2017-Feb-27 07:32N 36°50' W 076°17'0 0.0
2017-Feb-27 06:32N 36°50' W 076°17'0 0.0
2017-Feb-27 05:32N 36°50' W 076°17'0 0.0
2017-Feb-27 04:32N 36°50' W 076°17'3 2.8
2017-Feb-27 03:33N 36°48' W 076°18'3 3.0
2017-Feb-27 02:31N 36°50' W 076°16'2 2.3
2017-Feb-27 01:32N 36°51' W 076°18'3 0.8
2017-Feb-26 21:28N 36°54' W 076°20'4 4.6
2017-Feb-26 20:33N 36°51' W 076°18'2 1.8
2017-Feb-26 19:33N 36°50' W 076°15'1 1.5
2017-Feb-26 18:33N 36°50' W 076°17'4 4.0
2017-Feb-26 17:33N 36°54' W 076°20'0 0.0
2017-Feb-25 07:32N 36°54' W 076°20'5 4.9
2017-Feb-25 06:33N 36°50' W 076°16'1 1.2
2017-Feb-25 05:34N 36°50' W 076°15'1 0.8
2017-Feb-25 04:33N 36°50' W 076°16'0 0.0
2017-Feb-25 03:33N 36°50' W 076°16'2 1.8
2017-Feb-25 02:33N 36°51' W 076°18'1 1.4
2017-Feb-25 01:33N 36°50' W 076°16'2 1.9
2017-Feb-25 00:33N 36°49' W 076°17'5 4.9
2017-Feb-24 23:33N 36°44' W 076°16'1 0.0
2017-Feb-24 01:23N 36°43' W 076°15'4 4.3
2017-Feb-24 00:33N 36°46' W 076°18'4 4.4
2017-Feb-23 23:33N 36°50' W 076°17'0 0.4
2017-Feb-23 22:33N 36°50' W 076°17'1 0.7
2017-Feb-23 21:33N 36°50' W 076°17'0 0.0
2017-Feb-23 20:33N 36°50' W 076°17'0 0.0
2017-Feb-23 19:33N 36°50' W 076°17'0 0.0
2017-Feb-23 18:33N 36°50' W 076°17'0 0.0
2017-Feb-23 17:33N 36°50' W 076°17'0 0.0
2017-Feb-23 16:33N 36°50' W 076°17'0 0.0
2017-Feb-23 15:31N 36°50' W 076°17'0 0.0
2017-Feb-23 14:33N 36°50' W 076°17'0 0.0
2017-Feb-23 13:33N 36°50' W 076°17'0 0.0
2017-Feb-23 12:33N 36°50' W 076°17'0 0.0
2017-Feb-23 11:33N 36°50' W 076°17'0 0.0
2017-Feb-23 10:33N 36°50' W 076°17'0 0.0
2017-Feb-23 09:33N 36°50' W 076°17'0 0.0
2017-Feb-23 08:33N 36°50' W 076°17'0 0.0
2017-Feb-23 07:33N 36°50' W 076°17'0 0.0
2017-Feb-23 06:33N 36°50' W 076°17'0 0.0
2017-Feb-23 05:33N 36°50' W 076°17'0 0.0
2017-Feb-23 04:33N 36°50' W 076°17'0 0.0
2017-Feb-23 03:33N 36°50' W 076°17'1 0.7
2017-Feb-23 02:33N 36°51' W 076°18'4 1.3
2017-Feb-22 23:14N 36°55' W 076°20'5 7.3
2017-Feb-22 22:33N 36°51' W 076°18'1 1.3
2017-Feb-22 21:31N 36°50' W 076°16'4 4.1
2017-Feb-22 20:33N 36°53' W 076°20'0 0.0
2017-Feb-21 20:14N 36°53' W 076°20'4 5.3
2017-Feb-21 19:33N 36°50' W 076°17'1 1.0
2017-Feb-21 18:33N 36°50' W 076°16'0 0.2
2017-Feb-21 17:33N 36°50' W 076°16'2 1.8
2017-Feb-21 16:33N 36°49' W 076°17'0 0.0
2017-Feb-21 15:33N 36°49' W 076°17'1 1.4
2017-Feb-21 14:33N 36°50' W 076°17'3 0.7
2017-Feb-21 10:33N 36°52' W 076°20'3 2.6
2017-Feb-21 09:33N 36°50' W 076°17'6 5.5
2017-Feb-21 08:33N 36°45' W 076°18'3 3.4
2017-Feb-21 07:33N 36°43' W 076°14'5 0.3
2017-Feb-20 13:07N 36°43' W 076°08'4 4.9
2017-Feb-20 12:21N 36°43' W 076°13'2 2.1
2017-Feb-20 11:27N 36°43' W 076°15'2 2.1
2017-Feb-20 10:33N 36°44' W 076°17'5 5.1
2017-Feb-20 09:33N 36°49' W 076°17'2 1.9
2017-Feb-20 08:33N 36°50' W 076°16'2 2.0
2017-Feb-20 07:33N 36°49' W 076°17'5 5.1
2017-Feb-20 06:33N 36°44' W 076°17'1 0.1
2017-Feb-19 09:09N 36°43' W 076°15'3 4.7
2017-Feb-19 08:31N 36°46' W 076°18'5 4.5
2017-Feb-19 07:25N 36°50' W 076°16'1 1.0
2017-Feb-19 06:29N 36°50' W 076°17'3 3.1
2017-Feb-19 05:33N 36°47' W 076°18'  
Track history (hours):
 
Tides and Currents Weather Stations Pressure Air Temp Water Temp Dewpoint Dewpoint Depression Visibility Wind Speed Wind Dir Waves Ship Positions

Fort Pike

Owner: Salisbury Towing Corporation, Chesapeak, VA. More information available from US FCC via Universal Licensing System and Coast Guard Vessel Documentation Center.

Last reported at 2017-Feb-28 12:33 UTC. Time now 2017-Feb-28 12:48 UTC.
Position N 36°50' W 076°16'.

Length 18 m; draft 2.5 m.

Type: Tug. MMSI: 366948310.

Date/timePositionNaut miles runAvg speedWind from/ knotsBaromVisibWave heightAir tempDewpointWater temp
2017-Feb-28 12:33N 36°50' W 076°16'0 0.0
2017-Feb-28 11:33N 36°50' W 076°16'0 0.0
2017-Feb-28 10:21N 36°50' W 076°16'0 0.1
2017-Feb-28 06:33N 36°50' W 076°16'1 1.1
2017-Feb-28 05:33N 36°50' W 076°17'0 0.0
2017-Feb-28 04:33N 36°50' W 076°17'0 0.0
2017-Feb-28 03:33N 36°50' W 076°17'0 0.0
2017-Feb-28 02:33N 36°50' W 076°17'1 0.9
2017-Feb-28 01:33N 36°50' W 076°16'1 1.2
2017-Feb-28 00:33N 36°50' W 076°18'1 1.0
2017-Feb-27 23:33N 36°50' W 076°17'2 1.7
2017-Feb-27 22:33N 36°49' W 076°17'2 2.2
2017-Feb-27 21:33N 36°51' W 076°18'2 0.6
2017-Feb-27 17:33N 36°53' W 076°20'5 2.4
2017-Feb-27 15:32N 36°50' W 076°15'0 0.0
2017-Feb-27 14:32N 36°50' W 076°15'1 1.0
2017-Feb-27 13:33N 36°50' W 076°16'1 1.2
2017-Feb-27 12:32N 36°50' W 076°17'0 0.0
2017-Feb-27 11:32N 36°50' W 076°17'0 0.0
2017-Feb-27 10:32N 36°50' W 076°17'0 0.0
2017-Feb-27 09:32N 36°50' W 076°17'0 0.0
2017-Feb-27 08:32N 36°50' W 076°17'0 0.0
2017-Feb-27 07:32N 36°50' W 076°17'0 0.0
2017-Feb-27 06:32N 36°50' W 076°17'0 0.0
2017-Feb-27 05:32N 36°50' W 076°17'0 0.0
2017-Feb-27 04:32N 36°50' W 076°17'3 2.8
2017-Feb-27 03:33N 36°48' W 076°18'3 3.0
2017-Feb-27 02:31N 36°50' W 076°16'2 2.3
2017-Feb-27 01:32N 36°51' W 076°18'3 0.8
2017-Feb-26 21:28N 36°54' W 076°20'4 4.6
2017-Feb-26 20:33N 36°51' W 076°18'2 1.8
2017-Feb-26 19:33N 36°50' W 076°15'1 1.5
2017-Feb-26 18:33N 36°50' W 076°17'4 4.0
2017-Feb-26 17:33N 36°54' W 076°20'0 0.0
2017-Feb-25 07:32N 36°54' W 076°20'5 4.9
2017-Feb-25 06:33N 36°50' W 076°16'1 1.2
2017-Feb-25 05:34N 36°50' W 076°15'1 0.8
2017-Feb-25 04:33N 36°50' W 076°16'0 0.0
2017-Feb-25 03:33N 36°50' W 076°16'2 1.8
2017-Feb-25 02:33N 36°51' W 076°18'1 1.4
2017-Feb-25 01:33N 36°50' W 076°16'2 1.9
2017-Feb-25 00:33N 36°49' W 076°17'5 4.9
2017-Feb-24 23:33N 36°44' W 076°16'1 0.0
2017-Feb-24 01:23N 36°43' W 076°15'4 4.3
2017-Feb-24 00:33N 36°46' W 076°18'4 4.4
2017-Feb-23 23:33N 36°50' W 076°17'0 0.4
2017-Feb-23 22:33N 36°50' W 076°17'1 0.7
2017-Feb-23 21:33N 36°50' W 076°17'0 0.0
2017-Feb-23 20:33N 36°50' W 076°17'0 0.0
2017-Feb-23 19:33N 36°50' W 076°17'0 0.0
2017-Feb-23 18:33N 36°50' W 076°17'0 0.0
2017-Feb-23 17:33N 36°50' W 076°17'0 0.0
2017-Feb-23 16:33N 36°50' W 076°17'0 0.0
2017-Feb-23 15:31N 36°50' W 076°17'0 0.0
2017-Feb-23 14:33N 36°50' W 076°17'0 0.0
2017-Feb-23 13:33N 36°50' W 076°17'0 0.0
2017-Feb-23 12:33N 36°50' W 076°17'0 0.0
2017-Feb-23 11:33N 36°50' W 076°17'0 0.0
2017-Feb-23 10:33N 36°50' W 076°17'0 0.0
2017-Feb-23 09:33N 36°50' W 076°17'0 0.0
2017-Feb-23 08:33N 36°50' W 076°17'0 0.0
2017-Feb-23 07:33N 36°50' W 076°17'0 0.0
2017-Feb-23 06:33N 36°50' W 076°17'0 0.0
2017-Feb-23 05:33N 36°50' W 076°17'0 0.0
2017-Feb-23 04:33N 36°50' W 076°17'0 0.0
2017-Feb-23 03:33N 36°50' W 076°17'1 0.7
2017-Feb-23 02:33N 36°51' W 076°18'4 1.3
2017-Feb-22 23:14N 36°55' W 076°20'5 7.3
2017-Feb-22 22:33N 36°51' W 076°18'1 1.3
2017-Feb-22 21:31N 36°50' W 076°16'4 4.1
2017-Feb-22 20:33N 36°53' W 076°20'0 0.0
2017-Feb-21 20:14N 36°53' W 076°20'4 5.3
2017-Feb-21 19:33N 36°50' W 076°17'1 1.0
2017-Feb-21 18:33N 36°50' W 076°16'0 0.2
2017-Feb-21 17:33N 36°50' W 076°16'2 1.8
2017-Feb-21 16:33N 36°49' W 076°17'0 0.0
2017-Feb-21 15:33N 36°49' W 076°17'1 1.4
2017-Feb-21 14:33N 36°50' W 076°17'3 0.7
2017-Feb-21 10:33N 36°52' W 076°20'3 2.6
2017-Feb-21 09:33N 36°50' W 076°17'6 5.5
2017-Feb-21 08:33N 36°45' W 076°18'3 3.4
2017-Feb-21 07:33N 36°43' W 076°14'5 0.3
2017-Feb-20 13:07N 36°43' W 076°08'4 4.9
2017-Feb-20 12:21N 36°43' W 076°13'2 2.1
2017-Feb-20 11:27N 36°43' W 076°15'2 2.1
2017-Feb-20 10:33N 36°44' W 076°17'5 5.1
2017-Feb-20 09:33N 36°49' W 076°17'2 1.9
2017-Feb-20 08:33N 36°50' W 076°16'2 2.0
2017-Feb-20 07:33N 36°49' W 076°17'5 5.1
2017-Feb-20 06:33N 36°44' W 076°17'1 0.1
2017-Feb-19 09:09N 36°43' W 076°15'3 4.7
2017-Feb-19 08:31N 36°46' W 076°18'5 4.5
2017-Feb-19 07:25N 36°50' W 076°16'1 1.0
2017-Feb-19 06:29N 36°50' W 076°17'3 3.1
2017-Feb-19 05:33N 36°47' W 076°18'  

Dump ship's entire track history